sensor_id;sensor_type;location;lat;lon;timestamp;temperature;humidity
42199;DHT22;27868;45.184;5.786;2022-10-13T00:02:23;18.20;91.20
42199;DHT22;27868;45.184;5.786;2022-10-13T00:05:08;18.30;91.20
42199;DHT22;27868;45.184;5.786;2022-10-13T00:07:52;18.30;91.20
42199;DHT22;27868;45.184;5.786;2022-10-13T00:10:39;18.20;91.50
42199;DHT22;27868;45.184;5.786;2022-10-13T00:13:23;18.20;91.50
42199;DHT22;27868;45.184;5.786;2022-10-13T00:16:08;18.20;91.20
42199;DHT22;27868;45.184;5.786;2022-10-13T00:18:54;18.20;91.30
42199;DHT22;27868;45.184;5.786;2022-10-13T00:21:39;18.20;91.30
42199;DHT22;27868;45.184;5.786;2022-10-13T00:24:23;18.20;91.20
42199;DHT22;27868;45.184;5.786;2022-10-13T00:27:08;18.10;91.20
42199;DHT22;27868;45.184;5.786;2022-10-13T00:29:52;18.10;91.20
42199;DHT22;27868;45.184;5.786;2022-10-13T00:32:38;18.10;91.10
42199;DHT22;27868;45.184;5.786;2022-10-13T00:35:22;18.10;91.10
42199;DHT22;27868;45.184;5.786;2022-10-13T00:38:07;18.10;91.00
42199;DHT22;27868;45.184;5.786;2022-10-13T00:40:55;18.10;91.00
42199;DHT22;27868;45.184;5.786;2022-10-13T00:44:01;18.10;91.00
42199;DHT22;27868;45.184;5.786;2022-10-13T00:46:46;18.10;91.00
42199;DHT22;27868;45.184;5.786;2022-10-13T00:49:31;18.00;91.00
42199;DHT22;27868;45.184;5.786;2022-10-13T00:52:16;18.00;91.10
42199;DHT22;27868;45.184;5.786;2022-10-13T00:55:05;18.00;91.10
42199;DHT22;27868;45.184;5.786;2022-10-13T00:57:50;18.00;91.20
42199;DHT22;27868;45.184;5.786;2022-10-13T01:00:38;18.00;91.20
42199;DHT22;27868;45.184;5.786;2022-10-13T01:03:23;18.00;91.10
42199;DHT22;27868;45.184;5.786;2022-10-13T01:06:08;18.00;91.20
42199;DHT22;27868;45.184;5.786;2022-10-13T01:08:53;18.00;91.20
42199;DHT22;27868;45.184;5.786;2022-10-13T01:12:01;17.90;91.20
42199;DHT22;27868;45.184;5.786;2022-10-13T01:21:32;17.90;91.40
42199;DHT22;27868;45.184;5.786;2022-10-13T01:30:17;17.90;91.60
42199;DHT22;27868;45.184;5.786;2022-10-13T01:33:12;17.90;91.60
42199;DHT22;27868;45.184;5.786;2022-10-13T01:36:01;17.90;91.60
42199;DHT22;27868;45.184;5.786;2022-10-13T01:38:56;17.90;91.60
42199;DHT22;27868;45.184;5.786;2022-10-13T01:41:48;17.90;91.60
42199;DHT22;27868;45.184;5.786;2022-10-13T01:44:38;17.90;91.70
42199;DHT22;27868;45.184;5.786;2022-10-13T01:47:24;17.90;91.80
42199;DHT22;27868;45.184;5.786;2022-10-13T01:50:10;17.90;91.80
42199;DHT22;27868;45.184;5.786;2022-10-13T01:52:58;17.90;91.90
42199;DHT22;27868;45.184;5.786;2022-10-13T01:55:49;17.90;91.90
42199;DHT22;27868;45.184;5.786;2022-10-13T01:58:35;17.90;92.10
42199;DHT22;27868;45.184;5.786;2022-10-13T02:04:27;17.90;92.00
42199;DHT22;27868;45.184;5.786;2022-10-13T02:07:19;17.90;92.00
42199;DHT22;27868;45.184;5.786;2022-10-13T02:10:19;17.90;92.00
42199;DHT22;27868;45.184;5.786;2022-10-13T02:13:07;17.90;92.10
42199;DHT22;27868;45.184;5.786;2022-10-13T02:15:57;17.90;92.40
42199;DHT22;27868;45.184;5.786;2022-10-13T02:18:43;17.90;92.20
42199;DHT22;27868;45.184;5.786;2022-10-13T02:21:27;17.90;92.20
42199;DHT22;27868;45.184;5.786;2022-10-13T02:24:13;17.90;92.20
42199;DHT22;27868;45.184;5.786;2022-10-13T02:26:58;17.90;92.20
42199;DHT22;27868;45.184;5.786;2022-10-13T02:29:51;17.90;92.20
42199;DHT22;27868;45.184;5.786;2022-10-13T02:32:36;17.90;92.20
42199;DHT22;27868;45.184;5.786;2022-10-13T02:35:20;17.90;92.10
42199;DHT22;27868;45.184;5.786;2022-10-13T02:38:05;17.90;92.10
42199;DHT22;27868;45.184;5.786;2022-10-13T02:40:50;17.90;92.10
42199;DHT22;27868;45.184;5.786;2022-10-13T02:43:35;17.80;92.10
42199;DHT22;27868;45.184;5.786;2022-10-13T02:46:21;17.80;92.00
42199;DHT22;27868;45.184;5.786;2022-10-13T02:49:06;17.80;92.30
42199;DHT22;27868;45.184;5.786;2022-10-13T02:51:51;17.80;92.00
42199;DHT22;27868;45.184;5.786;2022-10-13T02:54:36;17.80;92.10
42199;DHT22;27868;45.184;5.786;2022-10-13T02:57:21;17.80;92.20
42199;DHT22;27868;45.184;5.786;2022-10-13T03:00:06;17.80;92.20
42199;DHT22;27868;45.184;5.786;2022-10-13T03:02:51;17.80;92.30
42199;DHT22;27868;45.184;5.786;2022-10-13T03:05:35;17.80;92.20
42199;DHT22;27868;45.184;5.786;2022-10-13T03:08:20;17.80;92.30
42199;DHT22;27868;45.184;5.786;2022-10-13T03:11:04;17.80;92.30
42199;DHT22;27868;45.184;5.786;2022-10-13T03:13:49;17.80;92.20
42199;DHT22;27868;45.184;5.786;2022-10-13T03:16:33;17.70;92.10
42199;DHT22;27868;45.184;5.786;2022-10-13T03:19:17;17.70;92.10
42199;DHT22;27868;45.184;5.786;2022-10-13T03:22:02;17.80;92.20
42199;DHT22;27868;45.184;5.786;2022-10-13T03:24:46;17.70;92.20
42199;DHT22;27868;45.184;5.786;2022-10-13T03:27:31;17.70;92.10
42199;DHT22;27868;45.184;5.786;2022-10-13T03:30:15;17.70;92.10
42199;DHT22;27868;45.184;5.786;2022-10-13T03:33:00;17.70;92.20
42199;DHT22;27868;45.184;5.786;2022-10-13T03:35:44;17.70;92.20
42199;DHT22;27868;45.184;5.786;2022-10-13T03:38:30;17.70;92.30
42199;DHT22;27868;45.184;5.786;2022-10-13T03:41:16;17.70;92.30
42199;DHT22;27868;45.184;5.786;2022-10-13T03:44:01;17.70;92.30
42199;DHT22;27868;45.184;5.786;2022-10-13T03:46:46;17.70;92.30
42199;DHT22;27868;45.184;5.786;2022-10-13T03:49:30;17.60;92.30
42199;DHT22;27868;45.184;5.786;2022-10-13T03:52:15;17.60;92.30
42199;DHT22;27868;45.184;5.786;2022-10-13T03:55:00;17.60;92.40
42199;DHT22;27868;45.184;5.786;2022-10-13T03:57:44;17.60;92.30
42199;DHT22;27868;45.184;5.786;2022-10-13T04:00:29;17.60;92.30
42199;DHT22;27868;45.184;5.786;2022-10-13T04:03:13;17.60;92.30
42199;DHT22;27868;45.184;5.786;2022-10-13T04:05:59;17.60;92.20
42199;DHT22;27868;45.184;5.786;2022-10-13T04:08:45;17.60;92.20
42199;DHT22;27868;45.184;5.786;2022-10-13T04:11:29;17.60;92.30
42199;DHT22;27868;45.184;5.786;2022-10-13T04:14:14;17.60;92.20
42199;DHT22;27868;45.184;5.786;2022-10-13T04:16:59;17.60;92.50
42199;DHT22;27868;45.184;5.786;2022-10-13T04:19:43;17.60;92.30
42199;DHT22;27868;45.184;5.786;2022-10-13T04:22:28;17.50;92.30
42199;DHT22;27868;45.184;5.786;2022-10-13T04:25:12;17.50;92.20
42199;DHT22;27868;45.184;5.786;2022-10-13T04:27:57;17.50;92.20
42199;DHT22;27868;45.184;5.786;2022-10-13T04:30:42;17.50;92.60
42199;DHT22;27868;45.184;5.786;2022-10-13T04:33:27;17.50;92.30
42199;DHT22;27868;45.184;5.786;2022-10-13T04:36:13;17.50;92.30
42199;DHT22;27868;45.184;5.786;2022-10-13T04:38:57;17.50;92.30
42199;DHT22;27868;45.184;5.786;2022-10-13T04:41:43;17.50;92.30
42199;DHT22;27868;45.184;5.786;2022-10-13T04:44:28;17.50;92.30
42199;DHT22;27868;45.184;5.786;2022-10-13T04:47:13;17.50;92.30
42199;DHT22;27868;45.184;5.786;2022-10-13T04:49:57;17.50;92.30
42199;DHT22;27868;45.184;5.786;2022-10-13T04:52:42;17.50;92.30
42199;DHT22;27868;45.184;5.786;2022-10-13T04:55:27;17.40;92.20
42199;DHT22;27868;45.184;5.786;2022-10-13T04:58:12;17.40;92.20
42199;DHT22;27868;45.184;5.786;2022-10-13T05:00:57;17.40;92.10
42199;DHT22;27868;45.184;5.786;2022-10-13T05:03:43;17.40;92.10
42199;DHT22;27868;45.184;5.786;2022-10-13T05:06:32;17.40;92.00
42199;DHT22;27868;45.184;5.786;2022-10-13T05:09:17;17.40;92.00
42199;DHT22;27868;45.184;5.786;2022-10-13T05:12:02;17.40;92.20
42199;DHT22;27868;45.184;5.786;2022-10-13T05:14:46;17.30;91.90
42199;DHT22;27868;45.184;5.786;2022-10-13T05:17:31;17.30;91.90
42199;DHT22;27868;45.184;5.786;2022-10-13T05:20:16;17.30;92.00
42199;DHT22;27868;45.184;5.786;2022-10-13T05:23:01;17.30;92.00
42199;DHT22;27868;45.184;5.786;2022-10-13T05:25:47;17.30;92.30
42199;DHT22;27868;45.184;5.786;2022-10-13T05:28:32;17.30;92.00
42199;DHT22;27868;45.184;5.786;2022-10-13T05:31:19;17.30;91.90
42199;DHT22;27868;45.184;5.786;2022-10-13T05:34:05;17.20;91.80
42199;DHT22;27868;45.184;5.786;2022-10-13T05:36:49;17.20;91.80
42199;DHT22;27868;45.184;5.786;2022-10-13T05:39:34;17.20;92.10
42199;DHT22;27868;45.184;5.786;2022-10-13T05:42:19;17.20;91.80
42199;DHT22;27868;45.184;5.786;2022-10-13T05:45:04;17.20;92.00
42199;DHT22;27868;45.184;5.786;2022-10-13T05:47:49;17.10;91.70
42199;DHT22;27868;45.184;5.786;2022-10-13T05:50:33;17.10;91.60
42199;DHT22;27868;45.184;5.786;2022-10-13T05:53:19;17.10;91.60
42199;DHT22;27868;45.184;5.786;2022-10-13T05:56:09;17.10;91.60
42199;DHT22;27868;45.184;5.786;2022-10-13T05:59:00;17.10;91.90
42199;DHT22;27868;45.184;5.786;2022-10-13T06:01:46;17.10;91.60
42199;DHT22;27868;45.184;5.786;2022-10-13T06:04:38;17.10;91.60
42199;DHT22;27868;45.184;5.786;2022-10-13T06:07:25;17.10;91.70
42199;DHT22;27868;45.184;5.786;2022-10-13T06:10:10;17.00;91.60
42199;DHT22;27868;45.184;5.786;2022-10-13T06:12:55;17.00;91.70
42199;DHT22;27868;45.184;5.786;2022-10-13T06:15:39;17.10;92.00
42199;DHT22;27868;45.184;5.786;2022-10-13T06:18:24;17.00;91.70
42199;DHT22;27868;45.184;5.786;2022-10-13T06:21:09;17.00;91.80
42199;DHT22;27868;45.184;5.786;2022-10-13T06:23:53;17.00;91.80
42199;DHT22;27868;45.184;5.786;2022-10-13T06:26:37;17.00;91.90
42199;DHT22;27868;45.184;5.786;2022-10-13T06:29:22;17.00;92.00
42199;DHT22;27868;45.184;5.786;2022-10-13T06:32:07;17.00;92.00
42199;DHT22;27868;45.184;5.786;2022-10-13T06:34:52;17.00;92.00
42199;DHT22;27868;45.184;5.786;2022-10-13T06:37:37;17.00;92.10
42199;DHT22;27868;45.184;5.786;2022-10-13T06:40:21;17.10;92.10
42199;DHT22;27868;45.184;5.786;2022-10-13T06:43:06;17.00;92.10
42199;DHT22;27868;45.184;5.786;2022-10-13T06:45:50;17.00;92.10
42199;DHT22;27868;45.184;5.786;2022-10-13T06:48:35;17.00;92.20
42199;DHT22;27868;45.184;5.786;2022-10-13T06:51:20;17.10;92.50
42199;DHT22;27868;45.184;5.786;2022-10-13T06:54:05;17.00;92.30
42199;DHT22;27868;45.184;5.786;2022-10-13T06:56:49;17.00;92.40
42199;DHT22;27868;45.184;5.786;2022-10-13T06:59:34;17.10;92.40
42199;DHT22;27868;45.184;5.786;2022-10-13T07:02:19;17.10;92.50
42199;DHT22;27868;45.184;5.786;2022-10-13T07:05:03;17.10;92.40
42199;DHT22;27868;45.184;5.786;2022-10-13T07:07:51;17.10;92.40
42199;DHT22;27868;45.184;5.786;2022-10-13T07:10:37;17.10;92.40
42199;DHT22;27868;45.184;5.786;2022-10-13T07:13:22;17.10;92.40
42199;DHT22;27868;45.184;5.786;2022-10-13T07:16:08;17.10;92.40
42199;DHT22;27868;45.184;5.786;2022-10-13T07:18:52;17.20;92.50
42199;DHT22;27868;45.184;5.786;2022-10-13T07:21:36;17.20;92.50
42199;DHT22;27868;45.184;5.786;2022-10-13T07:24:21;17.20;92.50
42199;DHT22;27868;45.184;5.786;2022-10-13T07:27:05;17.20;92.60
42199;DHT22;27868;45.184;5.786;2022-10-13T07:29:50;17.20;92.70
42199;DHT22;27868;45.184;5.786;2022-10-13T07:32:35;17.30;92.80
42199;DHT22;27868;45.184;5.786;2022-10-13T07:35:20;17.20;92.80
42199;DHT22;27868;45.184;5.786;2022-10-13T07:38:07;17.30;92.80
42199;DHT22;27868;45.184;5.786;2022-10-13T07:40:51;17.30;92.80
42199;DHT22;27868;45.184;5.786;2022-10-13T07:43:36;17.30;92.70
42199;DHT22;27868;45.184;5.786;2022-10-13T07:46:21;17.40;92.70
42199;DHT22;27868;45.184;5.786;2022-10-13T07:49:06;17.40;92.70
42199;DHT22;27868;45.184;5.786;2022-10-13T07:51:51;17.40;92.70
42199;DHT22;27868;45.184;5.786;2022-10-13T07:54:35;17.40;92.70
42199;DHT22;27868;45.184;5.786;2022-10-13T07:57:20;17.40;92.80
42199;DHT22;27868;45.184;5.786;2022-10-13T08:00:05;17.40;93.10
42199;DHT22;27868;45.184;5.786;2022-10-13T08:02:50;17.40;92.80
42199;DHT22;27868;45.184;5.786;2022-10-13T08:05:36;17.50;92.80
42199;DHT22;27868;45.184;5.786;2022-10-13T08:08:21;17.50;92.80
42199;DHT22;27868;45.184;5.786;2022-10-13T08:11:14;17.50;92.80
42199;DHT22;27868;45.184;5.786;2022-10-13T08:13:59;17.50;92.80
42199;DHT22;27868;45.184;5.786;2022-10-13T08:16:45;17.50;92.70
42199;DHT22;27868;45.184;5.786;2022-10-13T08:19:30;17.60;92.60
42199;DHT22;27868;45.184;5.786;2022-10-13T08:22:14;17.60;92.60
42199;DHT22;27868;45.184;5.786;2022-10-13T08:25:00;17.60;92.60
42199;DHT22;27868;45.184;5.786;2022-10-13T08:27:45;17.60;92.70
42199;DHT22;27868;45.184;5.786;2022-10-13T08:30:30;17.60;92.80
42199;DHT22;27868;45.184;5.786;2022-10-13T08:33:14;17.70;92.90
42199;DHT22;27868;45.184;5.786;2022-10-13T08:35:59;17.70;92.90
42199;DHT22;27868;45.184;5.786;2022-10-13T08:38:44;17.80;92.90
42199;DHT22;27868;45.184;5.786;2022-10-13T08:41:32;17.80;92.70
42199;DHT22;27868;45.184;5.786;2022-10-13T08:44:35;17.80;92.60
42199;DHT22;27868;45.184;5.786;2022-10-13T08:47:42;17.80;92.30
42199;DHT22;27868;45.184;5.786;2022-10-13T08:50:32;17.90;92.20
42199;DHT22;27868;45.184;5.786;2022-10-13T08:53:29;17.90;92.20
42199;DHT22;27868;45.184;5.786;2022-10-13T08:56:26;17.90;92.20
42199;DHT22;27868;45.184;5.786;2022-10-13T08:59:14;17.90;92.10
42199;DHT22;27868;45.184;5.786;2022-10-13T09:02:04;17.90;92.20
42199;DHT22;27868;45.184;5.786;2022-10-13T09:04:52;17.90;92.10
42199;DHT22;27868;45.184;5.786;2022-10-13T09:07:39;18.00;92.10
42199;DHT22;27868;45.184;5.786;2022-10-13T09:10:24;18.00;92.20
42199;DHT22;27868;45.184;5.786;2022-10-13T09:13:09;18.00;92.10
42199;DHT22;27868;45.184;5.786;2022-10-13T09:15:53;18.00;92.00
42199;DHT22;27868;45.184;5.786;2022-10-13T09:18:39;18.00;92.10
42199;DHT22;27868;45.184;5.786;2022-10-13T09:21:24;18.10;92.20
42199;DHT22;27868;45.184;5.786;2022-10-13T09:24:15;18.10;92.10
42199;DHT22;27868;45.184;5.786;2022-10-13T09:27:12;18.20;91.80
42199;DHT22;27868;45.184;5.786;2022-10-13T09:29:57;18.20;92.00
42199;DHT22;27868;45.184;5.786;2022-10-13T09:32:42;18.20;91.60
42199;DHT22;27868;45.184;5.786;2022-10-13T09:35:27;18.20;91.40
42199;DHT22;27868;45.184;5.786;2022-10-13T09:46:52;18.30;91.10
42199;DHT22;27868;45.184;5.786;2022-10-13T09:49:41;18.30;91.00
42199;DHT22;27868;45.184;5.786;2022-10-13T09:52:27;18.40;91.10
42199;DHT22;27868;45.184;5.786;2022-10-13T09:55:32;18.40;91.20
42199;DHT22;27868;45.184;5.786;2022-10-13T09:58:22;18.40;91.00
42199;DHT22;27868;45.184;5.786;2022-10-13T10:01:17;18.40;91.00
42199;DHT22;27868;45.184;5.786;2022-10-13T10:04:07;18.50;90.70
42199;DHT22;27868;45.184;5.786;2022-10-13T10:06:53;18.50;90.70
42199;DHT22;27868;45.184;5.786;2022-10-13T10:09:43;18.50;90.60
42199;DHT22;27868;45.184;5.786;2022-10-13T10:12:30;18.60;90.50
42199;DHT22;27868;45.184;5.786;2022-10-13T10:15:55;18.60;90.30
42199;DHT22;27868;45.184;5.786;2022-10-13T10:21:44;18.60;90.50
42199;DHT22;27868;45.184;5.786;2022-10-13T10:30:20;18.70;89.80
42199;DHT22;27868;45.184;5.786;2022-10-13T10:33:17;18.80;89.70
42199;DHT22;27868;45.184;5.786;2022-10-13T10:36:10;18.80;89.80
42199;DHT22;27868;45.184;5.786;2022-10-13T10:45:02;18.90;89.40
42199;DHT22;27868;45.184;5.786;2022-10-13T10:47:51;19.00;89.80
42199;DHT22;27868;45.184;5.786;2022-10-13T10:50:38;19.00;89.70
42199;DHT22;27868;45.184;5.786;2022-10-13T10:56:31;19.00;89.40
42199;DHT22;27868;45.184;5.786;2022-10-13T11:05:21;19.00;90.00
42199;DHT22;27868;45.184;5.786;2022-10-13T11:08:43;19.10;89.80
42199;DHT22;27868;45.184;5.786;2022-10-13T11:11:30;19.10;89.50
42199;DHT22;27868;45.184;5.786;2022-10-13T11:14:27;19.20;89.30
42199;DHT22;27868;45.184;5.786;2022-10-13T11:17:17;19.10;88.10
42199;DHT22;27868;45.184;5.786;2022-10-13T11:35:22;19.40;87.70
42199;DHT22;27868;45.184;5.786;2022-10-13T11:38:25;19.40;87.50
42199;DHT22;27868;45.184;5.786;2022-10-13T11:41:21;19.50;87.50
42199;DHT22;27868;45.184;5.786;2022-10-13T11:47:11;19.60;87.10
42199;DHT22;27868;45.184;5.786;2022-10-13T11:53:22;19.70;86.60
42199;DHT22;27868;45.184;5.786;2022-10-13T11:56:22;19.80;86.70
42199;DHT22;27868;45.184;5.786;2022-10-13T11:59:25;19.90;86.90
42199;DHT22;27868;45.184;5.786;2022-10-13T12:02:11;19.90;86.50
42199;DHT22;27868;45.184;5.786;2022-10-13T12:05:05;20.00;86.00
42199;DHT22;27868;45.184;5.786;2022-10-13T12:07:53;20.00;85.60
42199;DHT22;27868;45.184;5.786;2022-10-13T12:10:39;20.00;85.50
42199;DHT22;27868;45.184;5.786;2022-10-13T12:13:27;20.10;86.40
42199;DHT22;27868;45.184;5.786;2022-10-13T12:16:12;20.10;85.70
42199;DHT22;27868;45.184;5.786;2022-10-13T12:19:18;20.10;85.80
42199;DHT22;27868;45.184;5.786;2022-10-13T12:22:11;20.20;85.30
42199;DHT22;27868;45.184;5.786;2022-10-13T12:25:05;20.20;85.10
42199;DHT22;27868;45.184;5.786;2022-10-13T12:27:52;20.30;85.10
42199;DHT22;27868;45.184;5.786;2022-10-13T12:30:38;20.30;85.00
42199;DHT22;27868;45.184;5.786;2022-10-13T12:36:15;20.40;84.50
42199;DHT22;27868;45.184;5.786;2022-10-13T12:39:05;20.40;83.90
42199;DHT22;27868;45.184;5.786;2022-10-13T12:41:51;20.50;84.10
42199;DHT22;27868;45.184;5.786;2022-10-13T12:44:37;20.50;84.20
42199;DHT22;27868;45.184;5.786;2022-10-13T12:53:16;20.50;83.60
42199;DHT22;27868;45.184;5.786;2022-10-13T12:56:03;20.50;82.80
42199;DHT22;27868;45.184;5.786;2022-10-13T12:58:48;20.50;82.90
42199;DHT22;27868;45.184;5.786;2022-10-13T13:01:34;20.60;83.20
42199;DHT22;27868;45.184;5.786;2022-10-13T13:12:51;20.60;83.70
42199;DHT22;27868;45.184;5.786;2022-10-13T13:15:37;20.60;83.50
42199;DHT22;27868;45.184;5.786;2022-10-13T13:21:17;20.70;83.00
42199;DHT22;27868;45.184;5.786;2022-10-13T13:24:02;20.70;83.30
42199;DHT22;27868;45.184;5.786;2022-10-13T13:26:47;20.70;83.50
42199;DHT22;27868;45.184;5.786;2022-10-13T13:29:32;20.70;83.20
42199;DHT22;27868;45.184;5.786;2022-10-13T13:32:18;20.70;83.10
42199;DHT22;27868;45.184;5.786;2022-10-13T13:35:03;20.70;83.10
42199;DHT22;27868;45.184;5.786;2022-10-13T13:37:49;20.70;83.40
42199;DHT22;27868;45.184;5.786;2022-10-13T13:40:35;20.70;83.50
42199;DHT22;27868;45.184;5.786;2022-10-13T13:43:19;20.80;84.00
42199;DHT22;27868;45.184;5.786;2022-10-13T13:46:05;20.80;84.00
42199;DHT22;27868;45.184;5.786;2022-10-13T13:48:50;20.80;83.50
42199;DHT22;27868;45.184;5.786;2022-10-13T13:51:35;20.80;82.70
42199;DHT22;27868;45.184;5.786;2022-10-13T13:54:19;20.80;82.80
42199;DHT22;27868;45.184;5.786;2022-10-13T13:57:04;20.80;83.20
42199;DHT22;27868;45.184;5.786;2022-10-13T13:59:49;20.80;82.70
42199;DHT22;27868;45.184;5.786;2022-10-13T14:02:34;20.80;82.90
42199;DHT22;27868;45.184;5.786;2022-10-13T14:05:19;20.80;83.20
42199;DHT22;27868;45.184;5.786;2022-10-13T14:08:03;20.80;83.10
42199;DHT22;27868;45.184;5.786;2022-10-13T14:10:48;20.80;82.90
42199;DHT22;27868;45.184;5.786;2022-10-13T14:13:33;20.80;83.20
42199;DHT22;27868;45.184;5.786;2022-10-13T14:16:18;20.80;83.30
42199;DHT22;27868;45.184;5.786;2022-10-13T14:19:02;20.90;83.40
42199;DHT22;27868;45.184;5.786;2022-10-13T14:21:47;20.80;83.00
42199;DHT22;27868;45.184;5.786;2022-10-13T14:24:32;20.90;83.10
42199;DHT22;27868;45.184;5.786;2022-10-13T14:27:16;20.90;83.20
42199;DHT22;27868;45.184;5.786;2022-10-13T14:30:03;20.80;83.00
42199;DHT22;27868;45.184;5.786;2022-10-13T14:32:48;20.80;82.60
42199;DHT22;27868;45.184;5.786;2022-10-13T14:35:32;20.80;82.60
42199;DHT22;27868;45.184;5.786;2022-10-13T14:38:17;20.80;82.90
42199;DHT22;27868;45.184;5.786;2022-10-13T14:41:04;20.80;82.70
42199;DHT22;27868;45.184;5.786;2022-10-13T14:43:53;20.80;82.90
42199;DHT22;27868;45.184;5.786;2022-10-13T14:46:41;20.80;82.90
42199;DHT22;27868;45.184;5.786;2022-10-13T14:49:26;20.80;83.20
42199;DHT22;27868;45.184;5.786;2022-10-13T14:52:10;20.80;82.70
42199;DHT22;27868;45.184;5.786;2022-10-13T14:54:55;20.80;82.70
42199;DHT22;27868;45.184;5.786;2022-10-13T14:57:40;20.80;82.90
42199;DHT22;27868;45.184;5.786;2022-10-13T15:00:25;20.80;83.40
42199;DHT22;27868;45.184;5.786;2022-10-13T15:03:09;20.80;83.80
42199;DHT22;27868;45.184;5.786;2022-10-13T15:05:54;20.80;84.20
42199;DHT22;27868;45.184;5.786;2022-10-13T15:08:38;20.80;84.50
42199;DHT22;27868;45.184;5.786;2022-10-13T15:11:24;20.80;84.90
42199;DHT22;27868;45.184;5.786;2022-10-13T15:14:09;20.80;85.10
42199;DHT22;27868;45.184;5.786;2022-10-13T15:16:54;20.80;85.00
42199;DHT22;27868;45.184;5.786;2022-10-13T15:19:38;20.90;84.80
42199;DHT22;27868;45.184;5.786;2022-10-13T15:22:23;20.90;84.60
42199;DHT22;27868;45.184;5.786;2022-10-13T15:25:08;20.80;84.50
42199;DHT22;27868;45.184;5.786;2022-10-13T15:27:53;20.80;84.70
42199;DHT22;27868;45.184;5.786;2022-10-13T15:30:38;20.80;84.60
42199;DHT22;27868;45.184;5.786;2022-10-13T15:33:22;20.80;85.00
42199;DHT22;27868;45.184;5.786;2022-10-13T15:36:07;20.80;85.30
42199;DHT22;27868;45.184;5.786;2022-10-13T15:38:52;20.80;85.40
42199;DHT22;27868;45.184;5.786;2022-10-13T15:41:36;20.80;85.10
42199;DHT22;27868;45.184;5.786;2022-10-13T15:44:24;20.80;85.10
42199;DHT22;27868;45.184;5.786;2022-10-13T15:47:09;20.80;84.80
42199;DHT22;27868;45.184;5.786;2022-10-13T15:49:53;20.70;83.60
42199;DHT22;27868;45.184;5.786;2022-10-13T15:52:39;20.70;83.90
42199;DHT22;27868;45.184;5.786;2022-10-13T15:55:24;20.70;84.50
42199;DHT22;27868;45.184;5.786;2022-10-13T15:58:09;20.70;84.80
42199;DHT22;27868;45.184;5.786;2022-10-13T16:00:54;20.70;85.30
42199;DHT22;27868;45.184;5.786;2022-10-13T16:03:39;20.70;85.50
42199;DHT22;27868;45.184;5.786;2022-10-13T16:06:24;20.70;85.80
42199;DHT22;27868;45.184;5.786;2022-10-13T16:09:10;20.70;86.00
42199;DHT22;27868;45.184;5.786;2022-10-13T16:11:54;20.60;86.70
42199;DHT22;27868;45.184;5.786;2022-10-13T16:14:39;20.60;86.00
42199;DHT22;27868;45.184;5.786;2022-10-13T16:17:24;20.60;86.10
42199;DHT22;27868;45.184;5.786;2022-10-13T16:20:09;20.60;85.90
42199;DHT22;27868;45.184;5.786;2022-10-13T16:22:54;20.60;85.90
42199;DHT22;27868;45.184;5.786;2022-10-13T16:25:39;20.60;86.00
42199;DHT22;27868;45.184;5.786;2022-10-13T16:28:23;20.50;86.30
42199;DHT22;27868;45.184;5.786;2022-10-13T16:31:11;20.50;86.60
42199;DHT22;27868;45.184;5.786;2022-10-13T16:33:57;20.50;86.70
42199;DHT22;27868;45.184;5.786;2022-10-13T16:36:41;20.40;86.90
42199;DHT22;27868;45.184;5.786;2022-10-13T16:39:27;20.50;87.00
42199;DHT22;27868;45.184;5.786;2022-10-13T16:42:12;20.40;86.90
42199;DHT22;27868;45.184;5.786;2022-10-13T16:44:56;20.40;87.00
42199;DHT22;27868;45.184;5.786;2022-10-13T16:47:41;20.40;87.30
42199;DHT22;27868;45.184;5.786;2022-10-13T16:50:26;20.40;87.60
42199;DHT22;27868;45.184;5.786;2022-10-13T16:53:10;20.30;87.40
42199;DHT22;27868;45.184;5.786;2022-10-13T16:55:55;20.30;87.30
42199;DHT22;27868;45.184;5.786;2022-10-13T16:58:39;20.30;87.20
42199;DHT22;27868;45.184;5.786;2022-10-13T17:01:29;20.30;87.10
42199;DHT22;27868;45.184;5.786;2022-10-13T17:04:14;20.30;87.00
42199;DHT22;27868;45.184;5.786;2022-10-13T17:06:59;20.30;87.70
42199;DHT22;27868;45.184;5.786;2022-10-13T17:09:43;20.20;86.90
42199;DHT22;27868;45.184;5.786;2022-10-13T17:12:28;20.20;86.90
42199;DHT22;27868;45.184;5.786;2022-10-13T17:15:13;20.20;86.90
42199;DHT22;27868;45.184;5.786;2022-10-13T17:17:57;20.10;86.70
42199;DHT22;27868;45.184;5.786;2022-10-13T17:21:03;20.10;86.70
42199;DHT22;27868;45.184;5.786;2022-10-13T17:23:48;20.10;86.70
42199;DHT22;27868;45.184;5.786;2022-10-13T17:26:33;20.10;87.00
42199;DHT22;27868;45.184;5.786;2022-10-13T17:29:18;20.00;87.00
42199;DHT22;27868;45.184;5.786;2022-10-13T17:32:03;20.00;87.10
42199;DHT22;27868;45.184;5.786;2022-10-13T17:34:47;20.00;87.00
42199;DHT22;27868;45.184;5.786;2022-10-13T17:37:32;20.00;87.00
42199;DHT22;27868;45.184;5.786;2022-10-13T17:40:16;20.00;87.30
42199;DHT22;27868;45.184;5.786;2022-10-13T17:43:02;19.90;87.30
42199;DHT22;27868;45.184;5.786;2022-10-13T17:45:46;19.90;87.10
42199;DHT22;27868;45.184;5.786;2022-10-13T17:48:31;19.90;87.10
42199;DHT22;27868;45.184;5.786;2022-10-13T17:51:17;19.90;87.20
42199;DHT22;27868;45.184;5.786;2022-10-13T17:54:05;19.90;87.40
42199;DHT22;27868;45.184;5.786;2022-10-13T17:56:50;19.90;87.40
42199;DHT22;27868;45.184;5.786;2022-10-13T17:59:34;19.90;87.50
42199;DHT22;27868;45.184;5.786;2022-10-13T18:02:19;19.90;87.60
42199;DHT22;27868;45.184;5.786;2022-10-13T18:05:05;19.80;87.60
42199;DHT22;27868;45.184;5.786;2022-10-13T18:07:50;19.80;87.70
42199;DHT22;27868;45.184;5.786;2022-10-13T18:10:34;19.80;87.80
42199;DHT22;27868;45.184;5.786;2022-10-13T18:13:19;19.80;87.90
42199;DHT22;27868;45.184;5.786;2022-10-13T18:16:09;19.80;87.90
42199;DHT22;27868;45.184;5.786;2022-10-13T18:18:54;19.70;87.90
42199;DHT22;27868;45.184;5.786;2022-10-13T18:21:38;19.70;88.60
42199;DHT22;27868;45.184;5.786;2022-10-13T18:24:23;19.70;88.20
42199;DHT22;27868;45.184;5.786;2022-10-13T18:27:08;19.70;88.10
42199;DHT22;27868;45.184;5.786;2022-10-13T18:29:53;19.70;88.00
42199;DHT22;27868;45.184;5.786;2022-10-13T18:32:38;19.70;88.00
42199;DHT22;27868;45.184;5.786;2022-10-13T18:35:23;19.70;87.90
42199;DHT22;27868;45.184;5.786;2022-10-13T18:38:07;19.60;87.90
42199;DHT22;27868;45.184;5.786;2022-10-13T18:40:57;19.60;88.00
42199;DHT22;27868;45.184;5.786;2022-10-13T18:43:42;19.60;88.00
42199;DHT22;27868;45.184;5.786;2022-10-13T18:46:26;19.60;88.20
42199;DHT22;27868;45.184;5.786;2022-10-13T18:49:12;19.60;88.10
42199;DHT22;27868;45.184;5.786;2022-10-13T18:52:01;19.60;88.30
42199;DHT22;27868;45.184;5.786;2022-10-13T18:54:45;19.50;88.30
42199;DHT22;27868;45.184;5.786;2022-10-13T18:57:33;19.50;88.40
42199;DHT22;27868;45.184;5.786;2022-10-13T19:00:17;19.50;88.50
42199;DHT22;27868;45.184;5.786;2022-10-13T19:03:02;19.50;88.50